Time;durP1;ratioP1;P1;durP2;ratioP2;P2;SDS_P1;SDS_P2;PMS_P1;PMS_P2;Temp;Humidity;BMP_temperature;BMP_pressure;BME280_temperature;BME280_humidity;BME280_pressure;Samples;Min_cycle;Max_cycle;Signal;HPM_P1;HPM_P2
2021/09/29 00:00:06;;;;;;;6.82;2.80;;;14.10;99.90;;;;;;5117442;27;20073;-69
2021/09/29 00:02:32;;;;;;;10.02;2.88;;;14.00;99.90;;;;;;5135249;27;20135;-70
2021/09/29 00:04:58;;;;;;;7.70;3.20;;;14.00;99.90;;;;;;5133877;27;20024;-69
2021/09/29 00:07:24;;;;;;;8.52;3.03;;;14.10;99.90;;;;;;5116656;27;20026;-70
2021/09/29 00:09:49;;;;;;;7.00;2.97;;;14.00;99.90;;;;;;5116866;27;20122;-69
2021/09/29 00:12:15;;;;;;;5.28;2.95;;;14.00;99.90;;;;;;5099855;27;20023;-70
2021/09/29 00:14:41;;;;;;;4.05;2.50;;;13.90;99.90;;;;;;5134949;27;20477;-70
2021/09/29 00:17:06;;;;;;;3.17;2.80;;;13.90;99.90;;;;;;5134829;27;20388;-68
2021/09/29 00:19:32;;;;;;;4.65;3.63;;;13.90;99.90;;;;;;5133598;27;20024;-69
2021/09/29 00:21:58;;;;;;;5.50;2.83;;;13.80;99.90;;;;;;5133416;27;20034;-69
2021/09/29 00:24:23;;;;;;;8.32;2.70;;;13.80;99.90;;;;;;5133523;27;20023;-70
2021/09/29 00:26:49;;;;;;;6.65;3.05;;;13.80;99.90;;;;;;5116216;27;20126;-71
2021/09/29 00:29:14;;;;;;;6.45;2.78;;;13.70;99.90;;;;;;5134703;27;20030;-70
2021/09/29 00:31:40;;;;;;;6.55;2.83;;;13.80;99.90;;;;;;5133360;27;20027;-70
2021/09/29 00:34:12;;;;;;;5.85;3.35;;;13.60;99.90;;;;;;5134731;27;20042;-70
2021/09/29 00:36:40;;;;;;;5.30;2.97;;;13.60;99.90;;;;;;5100666;27;20057;-71
2021/09/29 00:39:07;;;;;;;10.82;4.40;;;13.60;99.90;;;;;;5133575;27;20021;-70
2021/09/29 00:41:33;;;;;;;9.23;4.15;;;13.70;99.90;;;;;;5133459;27;20072;-70
2021/09/29 00:44:00;;;;;;;6.07;3.40;;;13.60;99.90;;;;;;5135218;27;20023;-69
2021/09/29 00:46:25;;;;;;;6.55;3.33;;;13.60;99.90;;;;;;5133291;27;20023;-70
2021/09/29 00:48:51;;;;;;;10.35;3.75;;;13.60;99.90;;;;;;5116227;27;20084;-69
2021/09/29 00:51:17;;;;;;;5.88;2.85;;;13.50;99.90;;;;;;5099089;27;20043;-69
2021/09/29 00:53:42;;;;;;;5.85;3.05;;;13.60;99.90;;;;;;5116117;27;20040;-69
2021/09/29 00:56:09;;;;;;;4.43;2.65;;;13.50;99.90;;;;;;5099170;27;20081;-69
2021/09/29 00:58:34;;;;;;;8.88;2.95;;;13.50;99.90;;;;;;5116014;27;20034;-70
2021/09/29 01:01:01;;;;;;;6.05;3.97;;;13.50;99.90;;;;;;5098840;27;20031;-70
2021/09/29 01:03:27;;;;;;;8.57;3.65;;;13.40;99.90;;;;;;5134693;27;20481;-70
2021/09/29 01:05:54;;;;;;;4.45;2.83;;;13.50;99.90;;;;;;5115906;27;20027;-71
2021/09/29 01:08:27;;;;;;;7.43;3.03;;;13.40;99.90;;;;;;5115892;27;20133;-73
2021/09/29 01:11:03;;;;;;;6.22;3.10;;;13.50;99.90;;;;;;5132838;27;20043;-73
2021/09/29 01:13:38;;;;;;;10.73;3.60;;;13.50;99.90;;;;;;5132886;27;20015;-73
2021/09/29 01:16:05;;;;;;;10.68;3.78;;;13.50;99.90;;;;;;5134024;27;20027;-73
2021/09/29 01:18:36;;;;;;;3.85;3.20;;;13.50;99.90;;;;;;5132750;27;20019;-73
2021/09/29 01:21:05;;;;;;;6.78;2.65;;;13.40;99.90;;;;;;5132963;27;20098;-72
2021/09/29 01:23:45;;;;;;;5.93;2.70;;;13.40;99.90;;;;;;5115700;28;20019;-73
2021/09/29 01:26:15;;;;;;;7.10;2.97;;;13.40;99.90;;;;;;5133007;28;20494;-73
2021/09/29 01:28:57;;;;;;;6.15;3.28;;;13.30;99.90;;;;;;5132722;28;20031;-72
2021/09/29 01:31:23;;;;;;;6.97;3.00;;;13.30;99.90;;;;;;5132709;28;20129;-73
2021/09/29 01:33:50;;;;;;;5.40;2.80;;;13.30;99.90;;;;;;5115674;28;20015;-73
2021/09/29 01:36:19;;;;;;;6.10;3.03;;;13.30;99.90;;;;;;5115655;28;20020;-73
2021/09/29 01:38:54;;;;;;;5.90;3.95;;;13.30;99.90;;;;;;5099128;28;20025;-73
2021/09/29 01:41:21;;;;;;;6.45;3.58;;;13.30;99.90;;;;;;5132900;28;20065;-73
2021/09/29 01:43:47;;;;;;;6.45;4.47;;;13.30;99.90;;;;;;5098733;28;20030;-72
2021/09/29 01:46:14;;;;;;;10.52;3.50;;;13.30;99.90;;;;;;5132693;28;20023;-71
2021/09/29 01:48:50;;;;;;;7.03;3.80;;;13.30;99.90;;;;;;5132588;28;20047;-73
2021/09/29 01:51:17;;;;;;;6.82;3.17;;;13.30;99.90;;;;;;5132783;28;20031;-70
2021/09/29 01:53:43;;;;;;;6.00;3.55;;;13.30;99.90;;;;;;5132838;28;20023;-68
2021/09/29 01:56:09;;;;;;;5.90;3.58;;;13.40;99.90;;;;;;5132588;28;20038;-69
2021/09/29 01:58:34;;;;;;;6.57;3.38;;;13.40;99.90;;;;;;5098699;28;20087;-69
2021/09/29 02:01:00;;;;;;;4.68;2.65;;;13.40;99.90;;;;;;5132380;28;20023;-69
2021/09/29 02:03:26;;;;;;;7.90;3.63;;;13.40;99.90;;;;;;5132358;27;20023;-70
2021/09/29 02:05:54;;;;;;;8.25;4.00;;;13.40;99.90;;;;;;5132587;28;20020;-70
2021/09/29 02:08:19;;;;;;;4.47;3.25;;;13.40;99.90;;;;;;5133898;27;20434;-70
2021/09/29 02:10:45;;;;;;;9.13;3.97;;;13.30;99.90;;;;;;5133544;27;20130;-70
2021/09/29 02:13:11;;;;;;;5.57;2.95;;;13.40;99.90;;;;;;5132370;28;20015;-69
2021/09/29 02:15:37;;;;;;;5.07;3.03;;;13.40;99.90;;;;;;5098294;28;20109;-69
2021/09/29 02:18:02;;;;;;;8.35;3.85;;;13.40;99.90;;;;;;5115247;28;20027;-70
2021/09/29 02:20:28;;;;;;;6.75;3.25;;;13.40;99.90;;;;;;5115170;28;20026;-70
2021/09/29 02:22:54;;;;;;;8.48;3.47;;;13.40;99.90;;;;;;5115465;28;20423;-69
2021/09/29 02:25:20;;;;;;;6.15;3.30;;;13.40;99.90;;;;;;5098517;28;20042;-69
2021/09/29 02:27:46;;;;;;;8.95;2.83;;;13.40;99.90;;;;;;5117160;27;20055;-72
2021/09/29 02:30:12;;;;;;;5.57;3.08;;;13.50;99.90;;;;;;5136697;27;20158;-73
2021/09/29 02:32:40;;;;;;;6.45;3.97;;;13.50;99.90;;;;;;5137119;27;20068;-72
2021/09/29 02:35:08;;;;;;;4.68;3.20;;;13.50;99.90;;;;;;5136895;27;20047;-71
2021/09/29 02:37:33;;;;;;;7.35;3.00;;;13.50;99.90;;;;;;5136050;27;20023;-73
2021/09/29 02:39:59;;;;;;;8.15;3.47;;;13.50;99.90;;;;;;5136228;27;20035;-73
2021/09/29 02:42:24;;;;;;;5.60;3.13;;;13.50;99.90;;;;;;5136121;27;20466;-72
2021/09/29 02:44:50;;;;;;;9.38;3.25;;;13.50;99.90;;;;;;5119029;27;20481;-72
2021/09/29 02:47:16;;;;;;;13.15;3.47;;;13.60;99.90;;;;;;5135907;27;20038;-73
2021/09/29 02:49:41;;;;;;;12.65;3.95;;;13.60;99.90;;;;;;5119064;27;20077;-73
2021/09/29 02:52:07;;;;;;;8.45;3.40;;;13.50;99.90;;;;;;5118891;27;20027;-72
2021/09/29 02:54:33;;;;;;;8.20;3.85;;;13.50;99.90;;;;;;5136292;27;20391;-73
2021/09/29 02:56:59;;;;;;;5.50;3.13;;;13.40;99.90;;;;;;5136741;27;20050;-73
2021/09/29 02:59:24;;;;;;;5.28;3.33;;;13.40;99.90;;;;;;5135667;27;20477;-73
2021/09/29 03:01:50;;;;;;;6.43;3.70;;;13.40;99.90;;;;;;5135592;27;20122;-73
2021/09/29 03:04:15;;;;;;;7.30;3.20;;;13.40;99.90;;;;;;5118157;27;20019;-72
2021/09/29 03:06:41;;;;;;;5.65;3.40;;;13.30;99.90;;;;;;5135389;27;20094;-73
2021/09/29 03:09:07;;;;;;;9.82;3.95;;;13.40;99.90;;;;;;5136224;27;20031;-72
2021/09/29 03:11:32;;;;;;;6.07;3.08;;;13.40;99.90;;;;;;5101067;27;20054;-71
2021/09/29 03:13:58;;;;;;;12.30;3.35;;;13.30;99.90;;;;;;5135173;27;20015;-72
2021/09/29 03:16:24;;;;;;;9.63;3.65;;;13.30;99.90;;;;;;5136648;27;20361;-72
2021/09/29 03:18:49;;;;;;;5.82;3.40;;;13.40;99.90;;;;;;5136847;27;20027;-72
2021/09/29 03:21:16;;;;;;;6.20;3.55;;;13.30;99.90;;;;;;5118218;27;20114;-71
2021/09/29 03:23:42;;;;;;;4.38;2.80;;;13.40;99.90;;;;;;5117873;27;20023;-72
2021/09/29 03:26:07;;;;;;;7.13;3.17;;;13.30;99.90;;;;;;5134957;27;20135;-71
2021/09/29 03:28:33;;;;;;;4.90;3.08;;;13.30;99.90;;;;;;5117859;27;20019;-72
2021/09/29 03:30:58;;;;;;;6.30;3.20;;;13.30;99.90;;;;;;5100646;27;20034;-73
2021/09/29 03:33:24;;;;;;;6.13;3.15;;;13.40;99.90;;;;;;5117611;27;20110;-72
2021/09/29 03:35:50;;;;;;;5.50;3.10;;;13.30;99.90;;;;;;5117539;27;20054;-70
2021/09/29 03:38:16;;;;;;;8.15;3.47;;;13.30;99.90;;;;;;5117574;27;20023;-70
2021/09/29 03:40:43;;;;;;;6.22;3.80;;;13.30;99.90;;;;;;5117121;27;20057;-71
2021/09/29 03:43:08;;;;;;;5.32;3.08;;;13.40;99.90;;;;;;5134676;27;20396;-70
2021/09/29 03:45:34;;;;;;;4.63;2.83;;;13.30;99.90;;;;;;5117546;27;20030;-70
2021/09/29 03:48:00;;;;;;;7.45;3.15;;;13.40;99.90;;;;;;5100140;27;20029;-70
2021/09/29 03:50:26;;;;;;;7.07;2.80;;;13.30;99.90;;;;;;5100194;27;20143;-69
2021/09/29 03:52:51;;;;;;;4.03;2.60;;;13.20;99.90;;;;;;5117046;27;20469;-70
2021/09/29 03:55:17;;;;;;;8.18;3.05;;;13.20;99.90;;;;;;5100235;27;20059;-70
2021/09/29 03:57:43;;;;;;;7.05;2.63;;;13.20;99.90;;;;;;5117087;27;20018;-70
2021/09/29 04:00:11;;;;;;;5.47;3.20;;;13.20;99.90;;;;;;5116921;27;20039;-70
2021/09/29 04:02:37;;;;;;;12.30;2.88;;;13.10;99.90;;;;;;5134283;27;20088;-70
2021/09/29 04:05:08;;;;;;;5.25;2.58;;;13.10;99.90;;;;;;5133941;27;20035;-70
2021/09/29 04:07:33;;;;;;;5.60;2.67;;;13.10;99.90;;;;;;5134062;27;20015;-71
2021/09/29 04:09:59;;;;;;;4.43;2.10;;;13.10;99.90;;;;;;5133731;27;20051;-70
2021/09/29 04:12:25;;;;;;;3.55;2.08;;;13.20;99.90;;;;;;5135163;27;20075;-71
2021/09/29 04:14:51;;;;;;;6.90;3.30;;;13.20;99.90;;;;;;5116710;27;20027;-70
2021/09/29 04:17:17;;;;;;;4.82;1.98;;;13.20;99.90;;;;;;5133839;27;20031;-71
2021/09/29 04:19:44;;;;;;;4.40;2.00;;;13.20;99.90;;;;;;5134004;27;20031;-70
2021/09/29 04:22:11;;;;;;;4.57;1.85;;;13.10;99.90;;;;;;5133659;27;20019;-73
2021/09/29 04:24:38;;;;;;;9.30;2.13;;;13.10;99.90;;;;;;5116488;27;20027;-70
2021/09/29 04:27:04;;;;;;;5.85;3.03;;;13.10;99.90;;;;;;5133677;27;20550;-71
2021/09/29 04:29:30;;;;;;;7.95;2.70;;;13.10;99.90;;;;;;5116453;27;20128;-71
2021/09/29 04:31:55;;;;;;;4.65;2.13;;;13.10;99.90;;;;;;5134003;27;20019;-73
2021/09/29 04:34:21;;;;;;;7.30;2.38;;;13.10;99.90;;;;;;5135228;27;20019;-71
2021/09/29 04:36:47;;;;;;;6.43;1.98;;;13.20;99.90;;;;;;5134653;27;20099;-70
2021/09/29 04:39:13;;;;;;;5.10;2.08;;;13.10;99.90;;;;;;5133655;27;20046;-72
2021/09/29 04:41:39;;;;;;;6.05;1.70;;;13.10;99.90;;;;;;5099578;27;20015;-72
2021/09/29 04:44:05;;;;;;;10.98;2.60;;;13.10;99.90;;;;;;5133322;27;20058;-71
2021/09/29 04:46:31;;;;;;;9.40;3.00;;;13.10;99.90;;;;;;5133344;27;20054;-72
2021/09/29 04:48:57;;;;;;;6.03;2.00;;;13.20;99.90;;;;;;5133225;27;20019;-70
2021/09/29 04:51:22;;;;;;;7.75;3.47;;;13.20;99.90;;;;;;5132561;27;20042;-70
2021/09/29 04:53:49;;;;;;;4.80;2.28;;;13.20;99.90;;;;;;5133315;27;20134;-71
2021/09/29 04:56:15;;;;;;;3.58;2.30;;;13.20;99.90;;;;;;5133258;27;20107;-69
2021/09/29 04:58:43;;;;;;;4.50;2.17;;;13.30;99.90;;;;;;5133412;27;20098;-69
2021/09/29 05:01:09;;;;;;;6.00;2.42;;;13.30;99.90;;;;;;5132980;27;20023;-69
2021/09/29 05:03:36;;;;;;;12.20;5.95;;;13.40;99.90;;;;;;5134727;27;20034;-70
2021/09/29 05:06:01;;;;;;;17.60;9.68;;;13.40;99.90;;;;;;5132953;27;20027;-69
2021/09/29 05:08:29;;;;;;;13.23;10.10;;;13.30;99.90;;;;;;5132925;27;20025;-68
2021/09/29 05:11:18;;;;;;;10.00;6.40;;;13.40;99.90;;;;;;5132917;27;20047;-69
2021/09/29 05:13:45;;;;;;;3.83;2.72;;;13.30;99.90;;;;;;5133226;27;20139;-69
2021/09/29 05:16:12;;;;;;;5.68;2.85;;;13.40;99.90;;;;;;5132963;27;20024;-70
2021/09/29 05:18:37;;;;;;;8.35;2.65;;;13.30;99.90;;;;;;5115823;27;20097;-69
2021/09/29 05:21:03;;;;;;;7.63;2.38;;;13.30;99.90;;;;;;5115725;27;20043;-69
2021/09/29 05:23:28;;;;;;;8.25;2.35;;;13.30;99.90;;;;;;5132918;27;20076;-70
2021/09/29 05:25:55;;;;;;;4.53;2.28;;;13.40;99.90;;;;;;5133062;27;20489;-72
2021/09/29 05:28:28;;;;;;;8.82;3.00;;;13.40;99.90;;;;;;5115671;28;20041;-69
2021/09/29 05:30:53;;;;;;;7.47;2.72;;;13.50;99.90;;;;;;5132965;28;20035;-69
2021/09/29 05:33:19;;;;;;;5.60;2.63;;;13.60;99.90;;;;;;5132837;27;20095;-70
2021/09/29 05:35:45;;;;;;;4.13;2.13;;;13.60;99.90;;;;;;5115809;28;20019;-69
2021/09/29 05:38:11;;;;;;;6.07;2.30;;;13.60;99.90;;;;;;5133243;28;20541;-71
2021/09/29 05:40:36;;;;;;;6.97;2.72;;;13.70;99.90;;;;;;5133046;28;20027;-71
2021/09/29 05:43:02;;;;;;;6.40;1.75;;;13.70;99.90;;;;;;5133042;28;20015;-70
2021/09/29 05:45:28;;;;;;;6.55;2.15;;;13.70;99.90;;;;;;5132686;28;20058;-71
2021/09/29 05:47:53;;;;;;;4.55;1.95;;;13.80;99.90;;;;;;5115605;28;20019;-71
2021/09/29 05:50:19;;;;;;;12.48;2.40;;;13.70;99.90;;;;;;5115683;28;20443;-71
2021/09/29 05:52:45;;;;;;;4.13;2.30;;;13.70;99.90;;;;;;5098567;28;20110;-71
2021/09/29 05:55:10;;;;;;;6.10;2.10;;;13.70;99.90;;;;;;5115557;28;20501;-71
2021/09/29 05:57:36;;;;;;;6.05;2.60;;;13.70;99.90;;;;;;5115861;28;20023;-74
2021/09/29 06:00:03;;;;;;;5.15;2.00;;;13.70;99.90;;;;;;5115701;28;20031;-71
2021/09/29 06:02:29;;;;;;;9.55;2.25;;;13.60;99.90;;;;;;5132778;27;20083;-70
2021/09/29 06:04:54;;;;;;;6.10;2.00;;;13.70;99.90;;;;;;5136643;27;20419;-71
2021/09/29 06:07:20;;;;;;;6.25;2.55;;;13.80;99.90;;;;;;5102998;27;20392;-70
2021/09/29 06:09:46;;;;;;;6.32;2.05;;;13.80;99.90;;;;;;5119493;27;20047;-70
2021/09/29 06:12:12;;;;;;;3.47;1.60;;;13.70;99.90;;;;;;5136754;27;20027;-71
2021/09/29 06:14:40;;;;;;;4.72;1.60;;;13.70;99.90;;;;;;5120138;27;20015;-71
2021/09/29 06:19:53;;;;;;;4.90;1.73;;;13.80;99.90;;;;;;5143105;27;20042;-72
2021/09/29 06:22:20;;;;;;;8.50;1.73;;;13.70;99.90;;;;;;5144539;27;20012;-72
2021/09/29 06:24:45;;;;;;;3.45;1.63;;;13.80;99.90;;;;;;5144168;27;20027;-70
2021/09/29 06:27:11;;;;;;;4.70;2.05;;;13.70;99.90;;;;;;5123272;27;20102;-71
2021/09/29 06:29:37;;;;;;;3.67;1.75;;;13.80;99.90;;;;;;5137845;27;20452;-69
2021/09/29 06:32:03;;;;;;;4.57;1.40;;;13.90;99.90;;;;;;5137565;27;20457;-71
2021/09/29 06:34:29;;;;;;;5.88;2.20;;;13.90;99.90;;;;;;5119284;27;20538;-72
2021/09/29 06:36:55;;;;;;;10.60;2.17;;;14.00;99.90;;;;;;5119194;27;20023;-69
2021/09/29 06:39:22;;;;;;;7.00;2.28;;;14.00;99.90;;;;;;5119249;27;20023;-69
2021/09/29 06:41:47;;;;;;;6.43;1.60;;;14.00;99.90;;;;;;5118662;27;20023;-68
2021/09/29 06:44:13;;;;;;;5.13;2.00;;;14.00;99.90;;;;;;5119116;27;20038;-69
2021/09/29 06:46:39;;;;;;;3.03;1.77;;;14.10;99.90;;;;;;5137189;27;20046;-71
2021/09/29 06:49:05;;;;;;;10.05;1.90;;;14.00;99.90;;;;;;5135965;27;20508;-69
2021/09/29 06:51:30;;;;;;;6.43;2.35;;;14.00;99.90;;;;;;5135877;27;20419;-68
2021/09/29 06:53:56;;;;;;;3.88;1.65;;;14.00;99.90;;;;;;5137044;27;20158;-72
2021/09/29 06:56:22;;;;;;;5.13;1.33;;;13.90;99.90;;;;;;5118748;27;20107;-74
2021/09/29 07:02:10;;;;;;;9.63;1.50;;;13.70;99.90;;;;;;5138476;27;20080;-76
2021/09/29 07:04:35;;;;;;;9.18;2.65;;;13.50;99.90;;;;;;5118578;27;20015;-73
2021/09/29 07:07:01;;;;;;;6.32;2.05;;;13.40;99.90;;;;;;5118485;27;20027;-77
2021/09/29 07:09:27;;;;;;;4.93;1.20;;;13.30;99.90;;;;;;5101524;27;20039;-76
2021/09/29 07:11:52;;;;;;;14.18;1.52;;;13.20;99.90;;;;;;5135748;27;20537;-75
2021/09/29 07:14:20;;;;;;;5.57;1.35;;;13.10;99.90;;;;;;5101331;28;20114;-78
2021/09/29 07:16:46;;;;;;;3.75;1.15;;;13.10;99.90;;;;;;5139188;27;20039;-83
2021/09/29 07:19:12;;;;;;;5.05;1.80;;;12.90;99.90;;;;;;5137806;27;20028;-81
2021/09/29 07:21:37;;;;;;;2.58;0.70;;;12.60;99.90;;;;;;5136680;27;20034;-81
2021/09/29 07:24:04;;;;;;;9.90;1.38;;;12.50;99.90;;;;;;5138360;27;20029;-79
2021/09/29 07:26:30;;;;;;;6.15;0.82;;;12.60;99.90;;;;;;5139869;27;20450;-82
2021/09/29 07:28:56;;;;;;;8.23;1.83;;;12.60;99.90;;;;;;5137475;27;20362;-78
2021/09/29 07:31:22;;;;;;;5.28;1.02;;;12.70;99.90;;;;;;5137680;27;20060;-78
2021/09/29 07:33:48;;;;;;;4.40;0.85;;;12.80;99.90;;;;;;5119032;27;20066;-78
2021/09/29 07:36:13;;;;;;;6.30;1.23;;;12.90;99.90;;;;;;5137795;27;20023;-84
2021/09/29 07:38:40;;;;;;;4.30;1.02;;;13.00;99.90;;;;;;5139834;27;20052;-84
2021/09/29 07:41:06;;;;;;;5.20;0.90;;;13.10;99.90;;;;;;5140917;27;20023;-73
2021/09/29 07:43:31;;;;;;;5.65;1.00;;;13.30;99.90;;;;;;5125042;27;20049;-85
2021/09/29 07:45:58;;;;;;;4.53;0.77;;;13.30;99.90;;;;;;5143778;27;20039;-79
2021/09/29 07:48:24;;;;;;;9.88;1.40;;;13.40;99.90;;;;;;5144646;27;20083;-80
2021/09/29 07:50:49;;;;;;;3.20;1.38;;;13.40;99.90;;;;;;5144532;27;20131;-82
2021/09/29 07:53:17;;;;;;;7.88;1.73;;;13.40;99.90;;;;;;5111293;27;20026;-83
2021/09/29 07:55:43;;;;;;;6.18;1.25;;;13.40;99.90;;;;;;5136335;27;20031;-79
2021/09/29 07:58:08;;;;;;;12.38;1.10;;;13.40;99.90;;;;;;5137029;27;20015;-75
2021/09/29 08:00:34;;;;;;;8.13;1.55;;;13.30;99.90;;;;;;5136616;27;20027;-75
2021/09/29 08:03:00;;;;;;;3.50;1.33;;;13.20;99.90;;;;;;5135161;27;20033;-86
2021/09/29 08:05:25;;;;;;;6.90;0.88;;;13.20;99.90;;;;;;5137299;27;20038;-82
2021/09/29 08:07:51;;;;;;;5.38;1.27;;;13.30;99.90;;;;;;5117867;27;20151;-71
2021/09/29 08:10:18;;;;;;;2.90;0.77;;;13.30;99.90;;;;;;5120722;27;20055;-79
2021/09/29 08:12:44;;;;;;;1.55;0.68;;;13.40;99.90;;;;;;5138390;27;20107;-76
2021/09/29 08:15:13;;;;;;;6.50;1.77;;;13.40;99.90;;;;;;5141840;27;20027;-82
2021/09/29 08:17:40;;;;;;;7.40;1.27;;;13.40;99.90;;;;;;5120492;27;20023;-84
2021/09/29 08:20:06;;;;;;;7.78;1.52;;;13.40;99.90;;;;;;5135126;27;20028;-79
2021/09/29 08:22:32;;;;;;;3.88;0.70;;;13.40;99.90;;;;;;5135971;27;20030;-79
2021/09/29 08:25:13;;;;;;;6.47;1.17;;;13.40;99.90;;;;;;5135901;27;20106;-72
2021/09/29 08:30:42;;;;;;;5.07;0.82;;;13.20;99.90;;;;;;5134859;27;20085;-74
2021/09/29 08:38:36;;;;;;;1.80;0.40;;;13.00;99.90;;;;;;5135409;27;20023;-78
2021/09/29 08:46:18;;;;;;;0.60;0.30;;;13.20;99.90;;;;;;5134314;27;20409;-78
2021/09/29 08:49:07;;;;;;;1.50;0.20;;;13.40;99.90;;;;;;5117706;27;20022;-74
2021/09/29 09:15:58;;;;;;;3.70;1.48;;;14.30;99.90;;;;;;5133413;27;20034;-74
2021/09/29 09:18:23;;;;;;;1.05;0.50;;;14.20;99.90;;;;;;5133207;27;20031;-73
2021/09/29 09:21:06;;;;;;;3.72;0.50;;;14.30;99.90;;;;;;5098955;28;20020;-71
2021/09/29 09:23:37;;;;;;;4.05;0.70;;;14.20;99.90;;;;;;5117730;27;20041;-71
2021/09/29 09:26:20;;;;;;;0.68;0.45;;;14.20;99.90;;;;;;5115780;27;20023;-73
2021/09/29 09:28:47;;;;;;;1.92;0.52;;;14.20;99.90;;;;;;5115791;28;20031;-74
2021/09/29 09:31:14;;;;;;;4.38;1.10;;;14.20;99.90;;;;;;5115719;28;20023;-74
2021/09/29 09:33:52;;;;;;;2.50;0.52;;;14.10;99.90;;;;;;5132874;28;20022;-73
2021/09/29 09:36:38;;;;;;;2.05;0.50;;;14.10;99.90;;;;;;5115853;28;20489;-74
2021/09/29 09:39:13;;;;;;;1.42;0.40;;;14.00;99.90;;;;;;5136294;27;20058;-69
2021/09/29 09:41:48;;;;;;;5.68;0.85;;;13.90;99.90;;;;;;5120817;27;20015;-76
2021/09/29 09:44:27;;;;;;;1.77;0.50;;;13.70;99.90;;;;;;5137622;27;20031;-78
2021/09/29 09:47:13;;;;;;;5.20;0.60;;;13.50;99.90;;;;;;5137457;27;20047;-79
2021/09/29 09:49:53;;;;;;;3.03;0.40;;;13.30;99.90;;;;;;5137644;27;20027;-77
2021/09/29 09:52:33;;;;;;;2.83;0.40;;;13.30;99.90;;;;;;5120186;27;20388;-70
2021/09/29 09:55:07;;;;;;;0.68;0.30;;;13.20;99.90;;;;;;5119808;27;20031;-70
2021/09/29 09:57:34;;;;;;;;;;;13.10;99.90;;;;;;5120423;27;20431;-75
2021/09/29 10:00:00;;;;;;;1.17;0.47;;;13.10;99.90;;;;;;5137174;27;19904;-73
2021/09/29 10:02:38;;;;;;;1.27;0.77;;;13.00;99.90;;;;;;5120191;27;20422;-69
2021/09/29 10:05:04;;;;;;;3.90;0.55;;;13.10;99.90;;;;;;5136829;27;20027;-73
2021/09/29 10:07:30;;;;;;;3.38;0.57;;;13.10;99.90;;;;;;5137689;27;20426;-72
2021/09/29 10:10:24;;;;;;;4.13;0.90;;;13.10;99.90;;;;;;5121318;27;20043;-73
2021/09/29 10:27:22;;;;;;;5.25;1.00;;;13.00;99.90;;;;;;5137358;27;20032;-70
2021/09/29 10:30:06;;;;;;;2.70;0.40;;;13.00;99.90;;;;;;5119309;27;20088;-75
2021/09/29 10:32:40;;;;;;;2.00;1.10;;;13.10;99.90;;;;;;5120261;27;20418;-73
2021/09/29 10:43:05;;;;;;;6.47;1.13;;;13.40;99.90;;;;;;5135934;27;20027;-73
2021/09/29 10:45:42;;;;;;;3.17;0.90;;;13.60;99.90;;;;;;5120234;27;20015;-80
2021/09/29 10:48:46;;;;;;;1.58;0.52;;;13.60;99.90;;;;;;5137625;27;20106;-82
2021/09/29 11:09:21;;;;;;;3.83;1.40;;;14.20;99.90;;;;;;5140164;27;20027;-77
2021/09/29 11:36:26;;;;;;;5.55;1.00;;;15.30;99.90;;;;;;5135524;27;20110;-69
2021/09/29 12:09:41;;;;;;;7.15;1.52;;;16.90;99.90;;;;;;5134415;27;20054;-73
2021/09/29 12:15:00;;;;;;;7.20;1.33;;;16.80;99.90;;;;;;5134300;27;20019;-71
2021/09/29 12:17:27;;;;;;;3.70;1.27;;;16.50;99.90;;;;;;5134503;27;20080;-76
2021/09/29 12:20:01;;;;;;;6.38;1.35;;;16.00;99.90;;;;;;5134357;27;20103;-72
2021/09/29 12:22:31;;;;;;;4.82;1.02;;;15.40;99.90;;;;;;5134527;27;20030;-80
2021/09/29 12:25:08;;;;;;;7.57;1.25;;;14.70;99.90;;;;;;5134864;27;20063;-75
2021/09/29 12:28:11;;;;;;;2.70;0.90;;;14.20;99.90;;;;;;5134459;27;20031;-72
2021/09/29 12:30:36;;;;;;;5.57;1.00;;;13.80;99.90;;;;;;5134714;27;20099;-74
2021/09/29 12:36:07;;;;;;;10.40;1.17;;;13.40;99.90;;;;;;5117327;28;20042;-67
2021/09/29 12:38:35;;;;;;;10.25;1.10;;;13.10;99.90;;;;;;5133168;27;20035;-72
2021/09/29 12:41:01;;;;;;;2.53;1.00;;;12.80;99.90;;;;;;5139070;27;20031;-79
2021/09/29 12:43:27;;;;;;;2.80;0.77;;;12.60;99.90;;;;;;5119194;27;20388;-83
2021/09/29 12:45:53;;;;;;;4.20;1.40;;;12.40;99.90;;;;;;5136086;27;20030;-81
2021/09/29 12:48:23;;;;;;;12.80;2.40;;;12.30;99.90;;;;;;5117964;27;20106;-82
2021/09/29 12:51:01;;;;;;;7.05;1.50;;;12.30;99.90;;;;;;5134771;27;20034;-75
2021/09/29 12:56:11;;;;;;;3.78;0.95;;;12.70;99.90;;;;;;5135997;27;20034;-77
2021/09/29 12:58:37;;;;;;;10.15;2.05;;;13.00;99.90;;;;;;5134143;27;20048;-80
2021/09/29 13:01:03;;;;;;;7.80;1.67;;;13.50;99.90;;;;;;5099708;27;20036;-80
2021/09/29 13:03:28;;;;;;;5.80;1.05;;;14.00;99.90;;;;;;5133647;27;20042;-79
2021/09/29 13:05:57;;;;;;;10.73;1.58;;;14.40;99.90;;;;;;5133620;27;20027;-79
2021/09/29 13:08:23;;;;;;;9.68;1.52;;;14.80;99.90;;;;;;5134701;27;20015;-74
2021/09/29 13:10:48;;;;;;;6.18;1.00;;;15.20;99.90;;;;;;5134390;27;20107;-74
2021/09/29 13:13:15;;;;;;;5.28;1.00;;;15.50;99.90;;;;;;5098629;27;20015;-78
2021/09/29 13:15:51;;;;;;;2.85;0.70;;;15.90;99.90;;;;;;5117104;27;20462;-75
2021/09/29 13:20:55;;;;;;;5.05;1.15;;;16.40;99.90;;;;;;5116983;27;20027;-72
2021/09/29 13:36:39;;;;;;;2.47;0.95;;;16.40;99.90;;;;;;5132967;28;20088;-71
2021/09/29 13:39:17;;;;;;;3.42;1.13;;;16.00;99.90;;;;;;5116606;28;20473;-70
2021/09/29 13:41:44;;;;;;;3.80;0.98;;;15.70;99.90;;;;;;5132885;28;20023;-71
2021/09/29 13:44:11;;;;;;;4.75;0.88;;;15.40;99.90;;;;;;5132689;28;20031;-70
2021/09/29 13:46:37;;;;;;;5.80;0.60;;;15.10;99.90;;;;;;5133067;28;20455;-70
2021/09/29 13:49:05;;;;;;;7.70;1.10;;;14.90;99.90;;;;;;5132953;28;20461;-71
2021/09/29 13:51:32;;;;;;;7.57;0.80;;;14.70;99.90;;;;;;5115644;28;20123;-70
2021/09/29 13:54:04;;;;;;;6.05;1.20;;;14.50;99.90;;;;;;5132635;27;20389;-72
2021/09/29 13:56:40;;;;;;;10.20;1.73;;;14.30;99.90;;;;;;5132750;27;20015;-71
2021/09/29 14:14:16;;;;;;;6.82;2.00;;;13.50;99.90;;;;;;5124330;28;20039;-74
2021/09/29 14:28:34;;;;;;;8.02;1.45;;;13.10;99.90;;;;;;5135600;28;20083;-71
2021/09/29 14:29:26;;;;;;;6.60;1.33;;;13.60;99.90;;;;;;5136893;27;20132;-75
2021/09/29 14:34:24;;;;;;;3.65;0.90;;;14.10;99.90;;;;;;5138015;27;20027;-71
2021/09/29 14:36:50;;;;;;;3.25;1.10;;;14.40;99.90;;;;;;5119169;27;20035;-73
2021/09/29 14:39:16;;;;;;;9.43;1.90;;;14.50;99.90;;;;;;5102294;27;20027;-74
2021/09/29 14:41:42;;;;;;;6.57;1.38;;;14.50;99.90;;;;;;5136779;27;20046;-72
2021/09/29 14:44:08;;;;;;;6.03;2.15;;;14.20;99.90;;;;;;5137518;27;20080;-72
2021/09/29 14:46:34;;;;;;;6.80;1.42;;;13.80;99.90;;;;;;5137812;27;20027;-70
2021/09/29 14:49:00;;;;;;;7.30;0.98;;;13.50;99.90;;;;;;5138336;27;20469;-72
2021/09/29 14:51:26;;;;;;;4.30;1.20;;;13.40;99.90;;;;;;5137797;27;20046;-71
2021/09/29 14:53:54;;;;;;;7.10;1.10;;;13.30;99.90;;;;;;5136298;27;20015;-69
2021/09/29 14:56:21;;;;;;;3.22;0.75;;;13.30;99.90;;;;;;5137326;27;20084;-71
2021/09/29 14:58:47;;;;;;;5.65;1.00;;;13.30;99.90;;;;;;5136208;27;20111;-70
2021/09/29 15:01:14;;;;;;;4.13;1.20;;;13.30;99.90;;;;;;5118438;27;20046;-73
2021/09/29 15:03:41;;;;;;;6.22;1.70;;;13.40;99.90;;;;;;5135774;27;20027;-72
2021/09/29 15:06:07;;;;;;;7.00;1.25;;;13.40;99.90;;;;;;5137508;27;20100;-74
2021/09/29 15:08:36;;;;;;;6.95;1.25;;;13.60;99.90;;;;;;5136872;27;20075;-73
2021/09/29 15:11:03;;;;;;;7.78;2.03;;;13.80;99.90;;;;;;5135304;27;20047;-73
2021/09/29 15:13:32;;;;;;;8.95;1.15;;;13.80;99.90;;;;;;5118441;27;20132;-74
2021/09/29 15:16:02;;;;;;;5.40;0.77;;;13.80;99.90;;;;;;5118872;27;20406;-75
2021/09/29 15:27:35;;;;;;;9.15;1.35;;;13.00;99.90;;;;;;5135603;27;20091;-73
2021/09/29 15:48:41;;;;;;;8.98;1.30;;;13.00;99.90;;;;;;5135951;27;20050;-74
2021/09/29 15:51:11;;;;;;;10.20;1.33;;;12.90;99.90;;;;;;5134632;27;20035;-73
2021/09/29 15:56:41;;;;;;;5.80;1.55;;;13.00;99.90;;;;;;5134655;27;20062;-72
2021/09/29 16:01:43;;;;;;;11.25;1.02;;;13.40;99.90;;;;;;5135981;27;20065;-71
2021/09/29 16:06:50;;;;;;;4.85;1.20;;;13.60;99.90;;;;;;5135564;27;20381;-72
2021/09/29 16:17:28;;;;;;;4.45;1.73;;;13.60;99.90;;;;;;5115041;27;20031;-73
2021/09/29 16:22:58;;;;;;;8.43;1.33;;;13.60;99.90;;;;;;5120069;27;20550;-73
2021/09/29 16:36:11;;;;;;;6.95;1.20;;;13.60;99.90;;;;;;5134025;27;20031;-72
2021/09/29 16:38:38;;;;;;;6.55;1.08;;;13.70;99.90;;;;;;5116339;27;20031;-73
2021/09/29 16:41:04;;;;;;;9.10;1.17;;;13.70;99.90;;;;;;5116901;27;20500;-72
2021/09/29 16:43:29;;;;;;;11.23;1.40;;;13.70;99.90;;;;;;5116431;27;20031;-72
2021/09/29 16:45:57;;;;;;;6.43;1.50;;;13.80;99.90;;;;;;5135005;27;20027;-73
2021/09/29 16:48:26;;;;;;;7.53;1.70;;;13.80;99.90;;;;;;5115630;27;20376;-73
2021/09/29 16:53:17;;;;;;;5.72;1.60;;;13.70;99.90;;;;;;5135447;27;20077;-70
2021/09/29 16:55:46;;;;;;;4.57;1.20;;;13.60;99.90;;;;;;5116137;27;20031;-71
2021/09/29 16:58:20;;;;;;;6.57;1.20;;;13.40;99.90;;;;;;5135180;27;20066;-71
2021/09/29 17:00:53;;;;;;;;;;;13.30;99.90;;;;;;5117821;27;20027;-73